Thunder radar more information blitzortung!


Löydät sääaseman tiedot myös:

European Weather Network

Finland Weather Exchange

Weather Underground

AWEKAS



Weather Underground säähistoriasivu

Päivittäin yhteenveto Heinäkuu 22, 2017 Yksiköt:  Englantilaiset    Metriset   Molemmat
« Edellinen Päivä
Seuraava Päivä »
Päivittäin Viikoittain Kuukausittain Vuosittain Mukautettu
  Korkea: Matala: Keskiarvo:
Lämpötila: TemperatureC °F 7.7 °F 13.6 °F
Kastepiste: DewpointC °F 7.1 °F 10.2 °F
Kosteus: Humidity % 56 % 81 %
Tuulen nopeus: WindSpeedKMH mph 0.0 mph 0.2 mph
Tuulenpuuska: WindSpeedGustKMH mph - -
Tuuli:- - WNW
Ilmanpaine: PressurehPa in 1017.5 in -
Sade: 0.5 in    
Historical Graphs
 
 
Taulukkotiedot Heinäkuu 22, 2017
Aika Lämpötila Kastepiste Ilmanpaine Tuuli Tuulen nopeus Tuulenpuuska Kosteus Sademäärä (tunneittain)
TemperatureC °F DewpointC °F PressurehPa in Calm     Humidity % HourlyPrecipMM in
00:00 11.1 °F 9.8 °F 1017.5 in Calm     92 % 0.0 in
00:05 11.0 °F 9.9 °F 1017.5 in Calm     93 % 0.0 in
00:10 10.8 °F 9.7 °F 1017.5 in Calm     93 % 0.0 in
00:15 10.7 °F 9.6 °F 1017.5 in Calm     93 % 0.0 in
00:20 10.6 °F 9.6 °F 1017.5 in Calm     94 % 0.0 in
00:25 10.6 °F 9.6 °F 1017.5 in Calm     94 % 0.0 in
00:30 10.6 °F 9.7 °F 1017.5 in Calm     94 % 0.0 in
00:35 10.6 °F 9.6 °F 1017.5 in Calm     94 % 0.0 in
00:40 10.5 °F 9.6 °F 1017.5 in Calm     94 % 0.0 in
00:45 10.4 °F 9.5 °F 1017.5 in Calm     94 % 0.0 in
00:50 10.4 °F 9.7 °F 1017.5 in Calm     95 % 0.0 in
00:55 10.4 °F 9.4 °F 1017.5 in Calm     94 % 0.0 in
01:00 10.2 °F 9.3 °F 1017.5 in Calm     94 % 0.0 in
01:05 10.1 °F 9.1 °F 1017.8 in Calm     94 % 0.0 in
01:10 9.9 °F 9.0 °F 1017.8 in Calm     94 % 0.0 in
01:15 9.8 °F 8.9 °F 1017.8 in Calm     94 % 0.0 in
01:20 9.7 °F 8.8 °F 1017.8 in Calm     94 % 0.0 in
01:25 9.7 °F 8.9 °F 1017.8 in Calm     95 % 0.0 in
01:30 9.6 °F 8.6 °F 1017.8 in Calm     94 % 0.0 in
01:35 9.5 °F 8.7 °F 1017.8 in Calm     95 % 0.0 in
01:40 9.4 °F 8.7 °F 1017.8 in Calm     95 % 0.0 in
01:45 9.4 °F 8.6 °F 1017.8 in Calm     95 % 0.0 in
01:50 9.4 °F 8.6 °F 1017.8 in Calm     95 % 0.0 in
01:55 9.4 °F 8.6 °F 1017.8 in Calm     95 % 0.0 in
02:00 9.4 °F 8.6 °F 1017.8 in Calm     95 % 0.0 in
02:05 9.4 °F 8.6 °F 1017.8 in Calm     95 % 0.0 in
02:10 9.3 °F 8.6 °F 1017.8 in Calm     95 % 0.0 in
02:15 9.3 °F 8.5 °F 1017.8 in Calm     95 % 0.0 in
02:20 9.2 °F 8.4 °F 1018.2 in Calm     95 % 0.0 in
02:25 9.1 °F 8.3 °F 1018.2 in Calm     95 % 0.0 in
02:30 9.1 °F 8.3 °F 1018.2 in Calm     95 % 0.0 in
02:35 8.9 °F 8.2 °F 1018.2 in Calm     95 % 0.0 in
02:40 8.8 °F 8.1 °F 1018.2 in Calm     95 % 0.0 in
02:45 8.8 °F 8.0 °F 1017.8 in Calm     95 % 0.0 in
02:50 8.8 °F 8.0 °F 1018.2 in Calm     95 % 0.0 in
02:55 8.7 °F 7.9 °F 1018.2 in Calm     95 % 0.0 in
03:00 8.6 °F 7.8 °F 1018.2 in Calm     95 % 0.0 in
03:05 8.6 °F 7.8 °F 1018.2 in Calm     95 % 0.0 in
03:10 8.6 °F 8.0 °F 1018.2 in Calm     96 % 0.0 in
03:15 8.7 °F 8.1 °F 1018.2 in Calm     96 % 0.0 in
03:20 8.7 °F 8.1 °F 1018.2 in Calm     96 % 0.0 in
03:25 8.7 °F 8.1 °F 1018.5 in Calm     96 % 0.0 in
03:30 8.7 °F 8.1 °F 1018.5 in Calm     96 % 0.0 in
03:35 8.7 °F 8.1 °F 1018.5 in Calm     96 % 0.0 in
03:40 8.7 °F 8.1 °F 1018.5 in Calm     96 % 0.0 in
03:45 8.6 °F 7.8 °F 1018.5 in Calm     95 % 0.0 in
03:50 8.5 °F 7.7 °F 1018.2 in Calm     95 % 0.0 in
03:55 8.4 °F 7.6 °F 1018.5 in Calm     95 % 0.0 in
04:00 8.2 °F 7.4 °F 1018.5 in Calm     95 % 0.0 in
04:05 8.1 °F 7.5 °F 1018.5 in Calm     96 % 0.0 in
04:10 8.1 °F 7.4 °F 1018.5 in Calm     96 % 0.0 in
04:15 8.1 °F 7.4 °F 1018.5 in Calm     96 % 0.0 in
04:20 8.0 °F 7.2 °F 1018.5 in Calm     95 % 0.0 in
04:25 7.8 °F 7.1 °F 1018.5 in Calm     95 % 0.0 in
04:30 7.7 °F 7.1 °F 1018.5 in Calm     96 % 0.0 in
04:35 7.7 °F 7.1 °F 1018.5 in Calm     96 % 0.0 in
04:40 7.8 °F 7.2 °F 1018.5 in Calm     96 % 0.0 in
04:45 7.9 °F 7.5 °F 1018.5 in Calm     97 % 0.0 in
04:50 8.1 °F 7.6 °F 1018.5 in Calm     97 % 0.0 in
04:55 8.1 °F 7.4 °F 1018.5 in Calm     96 % 0.0 in
05:00 8.1 °F 7.5 °F 1018.5 in Calm     96 % 0.0 in
05:05 8.1 °F 7.5 °F 1018.5 in Calm     96 % 0.0 in
05:10 8.1 °F 7.5 °F 1018.5 in Calm     96 % 0.0 in
05:15 8.1 °F 7.4 °F 1018.5 in Calm     96 % 0.0 in
05:20 7.9 °F 7.3 °F 1018.5 in Calm     96 % 0.0 in
05:25 7.9 °F 7.3 °F 1018.5 in Calm     96 % 0.0 in
05:30 7.8 °F 7.2 °F 1018.5 in Calm     96 % 0.0 in
05:35 7.8 °F 7.2 °F 1018.8 in Calm     96 % 0.0 in
05:40 7.8 °F 7.2 °F 1018.8 in Calm     96 % 0.0 in
05:45 7.8 °F 7.2 °F 1018.8 in Calm     96 % 0.0 in
05:50 7.8 °F 7.2 °F 1018.8 in Calm     96 % 0.0 in
05:55 7.8 °F 7.2 °F 1018.8 in Calm     96 % 0.0 in
06:00 7.8 °F 7.2 °F 1018.8 in Calm     96 % 0.0 in
06:05 7.8 °F 7.2 °F 1018.8 in Calm     96 % 0.0 in
06:10 7.7 °F 7.1 °F 1018.8 in Calm     96 % 0.0 in
06:15 7.7 °F 7.1 °F 1018.8 in Calm     96 % 0.0 in
06:20 7.7 °F 7.1 °F 1018.8 in Calm     96 % 0.0 in
06:25 7.8 °F 7.3 °F 1018.8 in Calm     97 % 0.0 in
06:30 7.8 °F 7.4 °F 1018.8 in Calm     97 % 0.0 in
06:35 8.1 °F 7.6 °F 1019.2 in Calm     97 % 0.0 in
06:40 8.3 °F 7.8 °F 1019.2 in Calm     97 % 0.0 in
06:45 8.4 °F 8.0 °F 1019.2 in Calm     97 % 0.0 in
06:50 8.7 °F 8.2 °F 1019.2 in Calm   4.8 mph 97 % 0.0 in
06:55 8.9 °F 8.4 °F 1019.2 in Calm   4.8 mph 97 % 0.0 in
07:00 9.1 °F 8.6 °F 1019.2 in Calm     97 % 0.0 in
07:05 9.2 °F 8.7 °F 1019.2 in Calm     97 % 0.0 in
07:10 9.3 °F 8.8 °F 1019.2 in Calm   4.8 mph 97 % 0.0 in
07:15 9.4 °F 8.9 °F 1019.2 in Calm   4.8 mph 97 % 0.0 in
07:20 9.4 °F 9.0 °F 1019.2 in Calm   6.4 mph 97 % 0.0 in
07:25 9.5 °F 9.1 °F 1019.2 in Calm   6.4 mph 97 % 0.0 in
07:30 9.6 °F 9.1 °F 1019.2 in Calm     97 % 0.0 in
07:35 9.7 °F 9.2 °F 1019.2 in Calm     97 % 0.0 in
07:40 9.8 °F 9.3 °F 1019.2 in Calm   1.6 mph 97 % 0.0 in
07:45 9.8 °F 9.3 °F 1019.2 in Calm   3.2 mph 97 % 0.0 in
07:50 9.8 °F 9.3 °F 1019.2 in Calm   3.2 mph 97 % 0.0 in
07:55 9.9 °F 9.4 °F 1019.2 in Calm     97 % 0.0 in
08:00 10.0 °F 9.6 °F 1019.2 in Calm     97 % 0.0 in
08:05 10.2 °F 9.9 °F 1019.2 in Calm     98 % 0.0 in
08:10 10.4 °F 9.9 °F 1019.2 in Calm     97 % 0.0 in
08:15 10.6 °F 10.3 °F 1019.2 in Calm     98 % 0.0 in
08:20 10.8 °F 10.5 °F 1019.2 in Calm     98 % 0.0 in
08:25 11.0 °F 10.7 °F 1019.2 in Calm     98 % 0.0 in
08:30 11.2 °F 10.9 °F 1019.2 in Calm     98 % 0.0 in
08:35 11.3 °F 11.1 °F 1019.2 in Calm   1.6 mph 98 % 0.0 in
08:40 11.6 °F 11.3 °F 1019.2 in Calm   1.6 mph 98 % 0.0 in
08:45 11.9 °F 11.6 °F 1019.2 in Calm     98 % 0.0 in
08:50 12.0 °F 11.7 °F 1019.2 in Calm     98 % 0.0 in
08:55 12.2 °F 11.9 °F 1019.2 in Calm     98 % 0.0 in
09:00 12.4 °F 12.1 °F 1019.2 in Calm     98 % 0.0 in
09:05 12.7 °F 12.4 °F 1019.2 in Calm     98 % 0.0 in
09:10 13.0 °F 12.7 °F 1019.2 in Calm     98 % 0.0 in
09:15 13.3 °F 12.9 °F 1019.2 in Calm     97 % 0.0 in
09:20 13.7 °F 12.9 °F 1019.2 in Calm     95 % 0.0 in
09:25 13.9 °F 12.7 °F 1019.2 in Calm   1.6 mph 92 % 0.0 in
09:30 14.2 °F 12.9 °F 1019.2 in Calm   1.6 mph 92 % 0.0 in
09:35 14.4 °F 12.8 °F 1019.2 in Calm   1.6 mph 90 % 0.0 in
09:40 14.7 °F 12.9 °F 1019.2 in Calm   1.6 mph 89 % 0.0 in
09:45 14.9 °F 12.8 °F 1019.2 in Calm     87 % 0.0 in
09:50 15.2 °F 13.1 °F 1019.2 in Calm   1.6 mph 87 % 0.0 in
09:55 15.5 °F 13.2 °F 1019.2 in Calm   1.6 mph 86 % 0.0 in
10:05 16.0 °F 13.1 °F 1019.2 in Calm   6.4 mph 83 % 0.0 in
10:10 16.2 °F 13.3 °F 1019.2 in Calm   6.4 mph 83 % 0.0 in
10:15 16.5 °F 13.1 °F 1019.2 in Calm   1.6 mph 80 % 0.0 in
10:20 16.7 °F 13.2 °F 1019.2 in Calm   1.6 mph 80 % 0.0 in
10:25 16.8 °F 13.1 °F 1019.2 in Calm   4.8 mph 79 % 0.0 in
10:30 16.9 °F 13.0 °F 1019.2 in Calm   4.8 mph 78 % 0.0 in
10:35 17.0 °F 13.5 °F 1019.2 in Calm   4.8 mph 80 % 0.0 in
10:40 17.4 °F 13.1 °F 1019.2 in Calm   3.2 mph 76 % 0.0 in
10:45 17.5 °F 13.4 °F 1019.5 in Calm   3.2 mph 77 % 0.0 in
10:50 17.6 °F 12.9 °F 1019.2 in Calm   6.4 mph 74 % 0.0 in
10:55 17.8 °F 12.9 °F 1019.5 in Calm   6.4 mph 73 % 0.0 in
11:00 17.8 °F 12.9 °F 1019.2 in Calm   3.2 mph 73 % 0.0 in
11:05 17.8 °F 12.7 °F 1019.2 in Calm   4.8 mph 72 % 0.0 in
11:10 17.7 °F 12.6 °F 1019.5 in Calm   4.8 mph 72 % 0.0 in
11:15 17.8 °F 12.9 °F 1019.2 in Calm   1.6 mph 73 % 0.0 in
11:20 18.0 °F 12.7 °F 1019.2 in Calm   6.4 mph 71 % 0.0 in
11:25 18.2 °F 13.1 °F 1019.2 in Calm   6.4 mph 72 % 0.0 in
11:30 18.4 °F 13.5 °F 1019.2 in Calm   1.6 mph 73 % 0.0 in
11:35 18.7 °F 12.7 °F 1019.2 in Calm   4.8 mph 68 % 0.0 in
11:40 18.9 °F 12.8 °F 1019.2 in Calm   4.8 mph 68 % 0.0 in
11:45 18.9 °F 12.4 °F 1019.2 in NW 1.6 mph 4.8 mph 66 % 0.0 in
11:50 18.8 °F 12.6 °F 1019.2 in Calm   4.8 mph 67 % 0.0 in
11:55 18.9 °F 12.2 °F 1019.2 in Calm   3.2 mph 65 % 0.0 in
12:00 19.0 °F 12.1 °F 1019.2 in Calm   4.8 mph 64 % 0.0 in
12:05 18.9 °F 11.7 °F 1019.2 in NW 1.6 mph 9.7 mph 63 % 0.0 in
12:10 18.6 °F 11.6 °F 1019.2 in NW 1.6 mph 9.7 mph 64 % 0.0 in
12:15 18.3 °F 11.6 °F 1019.2 in NW 1.6 mph 8.0 mph 65 % 0.0 in
12:20 18.2 °F 11.5 °F 1019.2 in Calm   6.4 mph 65 % 0.0 in
12:25 18.2 °F 9.8 °F 1019.2 in NW 3.2 mph 9.7 mph 58 % 0.0 in
12:30 18.4 °F 10.5 °F 1019.2 in Calm   9.7 mph 60 % 0.0 in
12:35 18.6 °F 10.2 °F 1019.2 in NNE 1.6 mph 9.7 mph 58 % 0.0 in
12:40 18.9 °F 11.7 °F 1019.2 in NNW 6.4 mph 16.1 mph 63 % 0.0 in
12:45 18.4 °F 13.1 °F 1019.2 in NW 3.2 mph 16.1 mph 71 % 0.0 in
12:50 17.4 °F 12.7 °F 1019.2 in Calm   16.1 mph 74 % 0.0 in
12:55 16.5 °F 12.4 °F 1019.5 in Calm   4.8 mph 77 % 0.0 in
13:00 16.0 °F 12.3 °F 1019.5 in NW 1.6 mph 4.8 mph 79 % 0.0 in
13:05 15.7 °F 12.4 °F 1019.5 in Calm   4.8 mph 81 % 0.0 in
13:10 15.7 °F 12.8 °F 1019.5 in Calm   4.8 mph 83 % 0.0 in
13:15 15.8 °F 12.9 °F 1019.2 in Calm   4.8 mph 83 % 0.0 in
13:20 15.9 °F 12.7 °F 1019.2 in Calm   4.8 mph 81 % 0.0 in
13:25 16.2 °F 12.3 °F 1019.2 in NW 1.6 mph 6.4 mph 78 % 0.0 in
13:30 16.4 °F 11.8 °F 1019.2 in NW 1.6 mph 6.4 mph 74 % 0.0 in
13:35 16.8 °F 12.1 °F 1019.2 in NW 3.2 mph 6.4 mph 74 % 0.0 in
13:40 17.1 °F 12.6 °F 1019.2 in NW 3.2 mph 9.7 mph 75 % 0.0 in
13:45 17.4 °F 12.9 °F 1019.2 in Calm   9.7 mph 75 % 0.0 in
13:50 17.6 °F 13.3 °F 1019.2 in NW 1.6 mph 4.8 mph 76 % 0.0 in
13:55 17.3 °F 13.6 °F 1019.5 in NW 3.2 mph 8.0 mph 79 % 0.5 in
14:00 16.5 °F 13.1 °F 1019.5 in Calm   8.0 mph 80 % 0.5 in
14:05 15.8 °F 13.1 °F 1019.2 in Calm   4.8 mph 84 % 0.5 in
14:10 15.3 °F 13.6 °F 1019.5 in Calm   3.2 mph 89 % 0.5 in
14:15 15.4 °F 13.7 °F 1019.2 in Calm   1.6 mph 89 % 0.5 in
14:20 15.7 °F 13.5 °F 1019.2 in Calm   3.2 mph 87 % 0.5 in
14:25 15.8 °F 13.1 °F 1019.5 in Calm   3.2 mph 84 % 0.5 in
14:30 15.8 °F 13.3 °F 1019.2 in Calm   1.6 mph 85 % 0.5 in
14:35 16.0 °F 13.5 °F 1019.2 in NW 1.6 mph 6.4 mph 85 % 0.5 in
14:40 16.2 °F 13.1 °F 1019.2 in Calm   6.4 mph 82 % 0.5 in
14:45 16.2 °F 13.3 °F 1019.2 in Calm   8.0 mph 83 % 0.5 in
14:50 16.2 °F 13.3 °F 1019.5 in Calm   8.0 mph 83 % 0.5 in
14:55 16.4 °F 13.5 °F 1019.5 in Calm   6.4 mph 83 % 0.3 in
15:00 16.6 °F 12.7 °F 1019.2 in Calm   6.4 mph 78 % 0.0 in
15:05 16.6 °F 12.7 °F 1019.2 in Calm   6.4 mph 78 % 0.0 in
15:10 16.6 °F 12.2 °F 1019.2 in NNW 1.6 mph 6.4 mph 75 % 0.0 in
15:15 16.8 °F 12.3 °F 1019.2 in Calm   6.4 mph 75 % 0.0 in
15:20 16.9 °F 11.6 °F 1019.2 in NNW 1.6 mph 6.4 mph 71 % 0.0 in
15:25 16.8 °F 11.8 °F 1019.2 in Calm   6.4 mph 72 % 0.0 in
15:30 16.8 °F 11.8 °F 1019.2 in Calm   6.4 mph 72 % 0.0 in
15:35 16.9 °F 12.4 °F 1019.2 in Calm   6.4 mph 75 % 0.0 in
15:40 17.0 °F 12.9 °F 1019.2 in Calm   4.8 mph 77 % 0.0 in
15:45 17.1 °F 12.4 °F 1019.2 in Calm   3.2 mph 74 % 0.0 in
15:50 17.2 °F 12.7 °F 1019.2 in Calm   3.2 mph 75 % 0.0 in
15:55 17.5 °F 11.9 °F 1019.2 in Calm   4.8 mph 70 % 0.0 in
16:00 17.9 °F 11.7 °F 1019.2 in NNW 1.6 mph 9.7 mph 67 % 0.0 in
16:05 18.2 °F 12.6 °F 1019.2 in NNW 1.6 mph 9.7 mph 70 % 0.0 in
16:10 18.3 °F 12.1 °F 1019.2 in Calm   6.4 mph 67 % 0.0 in
16:15 18.3 °F 11.4 °F 1019.2 in Calm   3.2 mph 64 % 0.0 in
16:20 18.4 °F 11.4 °F 1019.2 in Calm   4.8 mph 64 % 0.0 in
16:25 18.4 °F 11.7 °F 1019.2 in NNW 1.6 mph 8.0 mph 65 % 0.0 in
16:30 18.6 °F 10.9 °F 1019.2 in Calm   8.0 mph 61 % 0.0 in
16:35 18.4 °F 10.0 °F 1019.2 in Calm   8.0 mph 58 % 0.0 in
16:40 18.1 °F 10.2 °F 1018.8 in Calm   3.2 mph 60 % 0.0 in
16:45 18.1 °F 10.9 °F 1018.8 in Calm   4.8 mph 63 % 0.0 in
16:50 18.3 °F 10.4 °F 1018.8 in Calm   4.8 mph 60 % 0.0 in
16:55 18.7 °F 10.5 °F 1019.2 in NNE 1.6 mph 9.7 mph 59 % 0.0 in
17:00 18.9 °F 11.5 °F 1018.8 in Calm   9.7 mph 62 % 0.0 in
17:05 19.1 °F 10.9 °F 1019.2 in Calm   6.4 mph 59 % 0.0 in
17:10 19.2 °F 10.2 °F 1019.2 in Calm   6.4 mph 56 % 0.0 in
17:15 19.3 °F 11.1 °F 1019.2 in NNE 1.6 mph 4.8 mph 59 % 0.0 in
17:20 19.2 °F 11.0 °F 1019.2 in Calm   4.8 mph 59 % 0.0 in
17:25 18.8 °F 11.4 °F 1018.8 in Calm   3.2 mph 62 % 0.0 in
17:30 18.5 °F 11.6 °F 1018.8 in Calm   1.6 mph 64 % 0.0 in
17:35 18.2 °F 11.5 °F 1019.2 in Calm   3.2 mph 65 % 0.0 in
17:40 18.0 °F 11.1 °F 1018.8 in Calm   6.4 mph 64 % 0.0 in
17:45 18.1 °F 12.3 °F 1018.8 in Calm   6.4 mph 69 % 0.0 in
17:50 18.2 °F 10.8 °F 1018.8 in Calm   4.8 mph 62 % 0.0 in
17:55 18.2 °F 10.5 °F 1018.8 in Calm   4.8 mph 61 % 0.0 in
18:00 17.9 °F 10.7 °F 1018.8 in Calm   1.6 mph 63 % 0.0 in
18:05 17.7 °F 11.2 °F 1018.8 in Calm   1.6 mph 66 % 0.0 in
18:10 17.5 °F 10.6 °F 1018.8 in Calm   1.6 mph 64 % 0.0 in
18:15 17.4 °F 10.3 °F 1018.8 in Calm   1.6 mph 63 % 0.0 in
18:20 17.6 °F 10.4 °F 1019.2 in Calm   3.2 mph 63 % 0.0 in
18:25 17.8 °F 10.2 °F 1019.2 in Calm   6.4 mph 61 % 0.0 in
18:30 18.1 °F 10.4 °F 1019.2 in Calm   6.4 mph 61 % 0.0 in
18:35 18.1 °F 10.2 °F 1019.2 in Calm   1.6 mph 60 % 0.0 in
18:40 17.9 °F 10.3 °F 1019.2 in Calm   1.6 mph 61 % 0.0 in
18:45 17.8 °F 10.7 °F 1019.2 in Calm   1.6 mph 63 % 0.0 in
18:50 17.7 °F 10.3 °F 1019.2 in Calm   1.6 mph 62 % 0.0 in
18:55 17.6 °F 10.9 °F 1019.2 in Calm   1.6 mph 65 % 0.0 in
19:00 17.5 °F 10.8 °F 1019.2 in Calm   3.2 mph 65 % 0.0 in
19:05 17.3 °F 11.2 °F 1019.2 in Calm   3.2 mph 67 % 0.0 in
19:10 17.2 °F 11.1 °F 1019.2 in Calm   6.4 mph 67 % 0.0 in
19:15 17.1 °F 10.2 °F 1019.2 in Calm   6.4 mph 64 % 0.0 in
19:20 17.0 °F 10.6 °F 1019.2 in Calm   1.6 mph 66 % 0.0 in
19:25 16.9 °F 10.8 °F 1019.2 in Calm     67 % 0.0 in
19:30 16.9 °F 10.6 °F 1019.2 in Calm   1.6 mph 66 % 0.0 in
19:35 16.9 °F 10.7 °F 1019.2 in Calm   1.6 mph 67 % 0.0 in
19:40 16.8 °F 10.9 °F 1019.2 in Calm   3.2 mph 68 % 0.0 in
19:45 16.8 °F 10.9 °F 1019.2 in Calm   3.2 mph 68 % 0.0 in
19:50 16.9 °F 10.5 °F 1019.2 in Calm   3.2 mph 66 % 0.0 in
19:55 17.1 °F 10.4 °F 1019.2 in Calm   3.2 mph 65 % 0.0 in
20:00 17.2 °F 10.8 °F 1019.2 in Calm     66 % 0.0 in
20:05 17.3 °F 11.1 °F 1019.2 in Calm   3.2 mph 67 % 0.0 in
20:10 17.3 °F 10.7 °F 1019.2 in Calm   3.2 mph 65 % 0.0 in
20:15 17.3 °F 10.7 °F 1019.2 in Calm   1.6 mph 65 % 0.0 in
20:20 17.3 °F 10.9 °F 1019.2 in Calm   1.6 mph 66 % 0.0 in
20:25 17.1 °F 10.5 °F 1019.2 in Calm   3.2 mph 65 % 0.0 in
20:35 16.7 °F 10.3 °F 1019.2 in Calm   4.8 mph 66 % 0.0 in
20:40 16.5 °F 10.1 °F 1019.2 in Calm   4.8 mph 66 % 0.0 in
20:45 16.3 °F 9.9 °F 1019.5 in Calm   1.6 mph 66 % 0.0 in
20:50 16.2 °F 9.8 °F 1019.2 in Calm   1.6 mph 66 % 0.0 in
20:55 16.1 °F 9.8 °F 1019.5 in Calm   1.6 mph 66 % 0.0 in
21:00 15.9 °F 9.6 °F 1019.5 in Calm   6.4 mph 66 % 0.0 in
21:05 15.8 °F 9.4 °F 1019.5 in Calm   6.4 mph 66 % 0.0 in
21:10 15.6 °F 9.1 °F 1019.5 in Calm   4.8 mph 65 % 0.0 in
21:15 15.5 °F 9.2 °F 1019.5 in Calm   4.8 mph 66 % 0.0 in
21:20 15.4 °F 9.1 °F 1019.5 in Calm     66 % 0.0 in
21:25 15.2 °F 9.1 °F 1019.5 in Calm   4.8 mph 67 % 0.0 in
21:30 15.1 °F 9.2 °F 1019.5 in Calm   4.8 mph 68 % 0.0 in
21:35 15.0 °F 9.3 °F 1019.5 in Calm     69 % 0.0 in
21:40 14.9 °F 9.4 °F 1019.5 in Calm     70 % 0.0 in
21:45 14.8 °F 9.6 °F 1019.5 in Calm     71 % 0.0 in
21:50 14.7 °F 9.5 °F 1019.5 in Calm     71 % 0.0 in
21:55 14.6 °F 9.6 °F 1019.5 in Calm     72 % 0.0 in
22:00 14.4 °F 9.7 °F 1019.5 in Calm   3.2 mph 73 % 0.0 in
22:05 14.3 °F 9.7 °F 1019.5 in Calm   3.2 mph 74 % 0.0 in
22:10 14.1 °F 9.7 °F 1019.5 in Calm     75 % 0.0 in
22:15 13.9 °F 9.6 °F 1019.5 in Calm     75 % 0.0 in
22:20 13.7 °F 9.5 °F 1019.9 in Calm     76 % 0.0 in
22:25 13.5 °F 9.3 °F 1019.5 in Calm   1.6 mph 76 % 0.0 in
22:30 13.3 °F 9.4 °F 1019.5 in Calm   3.2 mph 77 % 0.0 in
22:35 13.2 °F 9.2 °F 1019.9 in Calm   3.2 mph 77 % 0.0 in
22:40 13.1 °F 9.3 °F 1019.9 in Calm     78 % 0.0 in
22:45 12.9 °F 9.3 °F 1019.9 in Calm     79 % 0.0 in
22:50 12.7 °F 9.2 °F 1019.9 in Calm     79 % 0.0 in
22:55 12.6 °F 9.2 °F 1019.9 in Calm   1.6 mph 80 % 0.0 in
23:00 12.5 °F 9.2 °F 1019.9 in Calm   1.6 mph 80 % 0.0 in
23:05 12.4 °F 9.2 °F 1019.9 in Calm     81 % 0.0 in
23:10 12.3 °F 9.2 °F 1019.9 in Calm     81 % 0.0 in
23:15 12.2 °F 9.1 °F 1019.9 in Calm     81 % 0.0 in
23:20 12.1 °F 8.9 °F 1019.9 in Calm     81 % 0.0 in
23:25 12.1 °F 9.1 °F 1019.9 in Calm     82 % 0.0 in
23:30 11.9 °F 8.9 °F 1019.9 in Calm     82 % 0.0 in
23:35 11.8 °F 9.1 °F 1019.9 in Calm     83 % 0.0 in
23:40 11.7 °F 9.1 °F 1019.9 in Calm     84 % 0.0 in
23:45 11.6 °F 9.0 °F 1019.9 in Calm     84 % 0.0 in
23:50 11.4 °F 8.8 °F 1019.9 in Calm     84 % 0.0 in
23:55 11.3 °F 8.8 °F 1019.9 in Calm     85 % 0.0 in
Esan sääasema
Terveisin Weather Underground - 3.75 mb

Alkuperäinen skripti  Jim McMurry - jmcmurry@mwt.net Sovitettu myös templatelle  Wim van der Kuil - Leuven-Template.eu

Laitteet joita käytämme:

Sääasema
Davis VP2

Sääasemaohjelma
Cumulus

Sääaseman tietokone
Asus EeePC

Palveluntarjoaja
Suncomet

Davis VP2

Cumulus

Asus EeePC

Suncomet